Accueil
METAR-TAF:

METAR-TAF

Aéroports :

Aéroport de Tenerife-Sud

Ténérife Sud, Espagne

latitude: 28-03N, longitude: 016-34W, altitude: 64 m

Observation

Le bulletin a été fait il y a 34 minutes, à 22:00 UTC
Vent 25 kt de est/nord-est
Température 22°C
Humidité 78%
Pression 1017 hPa
Visibilité 10 km ou plus
Nuages fragmentés à une hauteur de 6000 ft
Nuages fragmentés à une hauteur de 9000 ft

METAR: GCTS 262200Z 07025KT 9999 BKN060 BKN090 22/18 Q1017 NOSIG

Heure: 23:34 (22:34 UTC)

Prévision

Le bulletin a été fait il y a 2 heures et 34 minutes, à 20:00 UTC
Prévision valable du 26 à 21 UTC au 27 à 21 UTC
Vent 20 kt de nord-est
Visibilité 10 km ou plus
Nuages épars à une hauteur de 2000 ft
Probabilité 30% :
Temporairement
du 26 à 21 UTC au 27 à 06 UTC
Visibilité: 4000 m
Nuages épars à une hauteur de 2500 ft, Cumulus congestus.
pluie

TAF: GCTS 262000Z 2621/2721 05020KT 9999 SCT020 TX27/2714Z TN21/2706Z PROB30 TEMPO 2621/2706 4000 RA SCT025TCU

Observations et prévisions météorologiques de plus de 4000 aéroports (messages METAR et TAF).

Les stations disponibles sont représentées par des disques jaunes et rouges sur la carte.

Passer la souris dessus pour voir le nom de la station.

Cliquer dessus pour voir les observations et prévisions météorologiques.

Pour changer de carte: cliquez sur les boutons verts avec une croix noire pour zoomer, sur le bouton vert avec un tiret pour effectuer un zoom arrière, ou sur les flèches vertes pour les cartes adjacentes.


METAR-TAF: